createdAt,value
2018-07-26T00:00:01.580Z,19.77
2018-07-26T00:00:05.576Z,19.78
2018-07-26T00:00:09.572Z,19.76
2018-07-26T00:00:13.776Z,19.76
2018-07-26T00:00:17.988Z,19.77
2018-07-26T00:00:22.083Z,19.77
2018-07-26T00:00:26.281Z,19.76
2018-07-26T00:00:30.377Z,19.77
2018-07-26T00:00:34.683Z,19.76
2018-07-26T00:00:38.887Z,19.78
2018-07-26T00:00:42.874Z,19.77
2018-07-26T00:00:47.073Z,19.77
2018-07-26T00:00:51.281Z,19.77
2018-07-26T00:00:55.488Z,19.77
2018-07-26T00:00:59.699Z,19.78
2018-07-26T00:01:03.797Z,19.77
2018-07-26T00:01:08.105Z,19.77
2018-07-26T00:01:12.095Z,19.77
2018-07-26T00:01:16.411Z,19.77
2018-07-26T00:01:20.723Z,19.77
2018-07-26T00:01:24.935Z,19.77
2018-07-26T00:01:29.037Z,19.76
2018-07-26T00:01:33.244Z,19.77
2018-07-26T00:01:37.453Z,19.76
2018-07-26T00:01:41.659Z,19.76
2018-07-26T00:01:45.659Z,19.77
2018-07-26T00:01:49.966Z,19.76
2018-07-26T00:01:54.169Z,19.77
2018-07-26T00:01:58.380Z,19.78
2018-07-26T00:02:02.372Z,19.76
2018-07-26T00:02:06.363Z,19.76
2018-07-26T00:02:10.478Z,19.76
2018-07-26T00:02:14.472Z,19.76
2018-07-26T00:02:18.677Z,19.76
2018-07-26T00:02:22.879Z,19.76
2018-07-26T00:02:27.084Z,19.76
2018-07-26T00:02:31.389Z,19.76
2018-07-26T00:02:35.377Z,19.76
2018-07-26T00:02:39.684Z,19.76
2018-07-26T00:02:43.990Z,19.76
2018-07-26T00:02:48.194Z,19.76
2018-07-26T00:02:52.521Z,19.76
2018-07-26T00:02:56.729Z,19.76
2018-07-26T00:03:00.936Z,19.76
2018-07-26T00:03:04.929Z,19.76
2018-07-26T00:03:09.032Z,19.76
2018-07-26T00:03:13.280Z,19.76
2018-07-26T00:03:17.379Z,19.75
2018-07-26T00:03:21.582Z,19.75
2018-07-26T00:03:25.685Z,19.75
2018-07-26T00:03:29.784Z,19.75
2018-07-26T00:03:33.890Z,19.75
2018-07-26T00:03:38.094Z,19.76
2018-07-26T00:03:42.192Z,19.75
2018-07-26T00:03:46.511Z,19.75
2018-07-26T00:03:50.711Z,19.74
2018-07-26T00:03:55.020Z,19.74
2018-07-26T00:03:59.329Z,19.74
2018-07-26T00:04:03.424Z,19.74
2018-07-26T00:04:07.629Z,19.75
2018-07-26T00:04:11.938Z,19.73
2018-07-26T00:04:16.135Z,19.74
2018-07-26T00:04:20.442Z,19.73
2018-07-26T00:04:24.541Z,19.74
2018-07-26T00:04:28.578Z,19.73
2018-07-26T00:04:32.780Z,19.72
2018-07-26T00:04:36.876Z,19.73
2018-07-26T00:04:41.074Z,19.72
2018-07-26T00:04:45.179Z,19.72
2018-07-26T00:04:49.483Z,19.72
2018-07-26T00:04:53.680Z,19.7
2018-07-26T00:04:57.780Z,19.71
2018-07-26T00:05:01.995Z,19.71
2018-07-26T00:05:05.989Z,19.7
2018-07-26T00:05:10.209Z,19.71
2018-07-26T00:05:14.523Z,19.7
2018-07-26T00:05:18.723Z,19.7
2018-07-26T00:05:22.942Z,19.7
2018-07-26T00:05:27.157Z,19.7
2018-07-26T00:05:31.245Z,19.7
2018-07-26T00:05:35.552Z,19.69
2018-07-26T00:05:39.750Z,19.7
2018-07-26T00:05:44.071Z,19.69
2018-07-26T00:05:48.280Z,19.69
2018-07-26T00:05:52.484Z,19.69
2018-07-26T00:05:56.677Z,19.68
2018-07-26T00:06:01.051Z,19.69
2018-07-26T00:06:04.985Z,19.68
2018-07-26T00:06:09.077Z,19.68
2018-07-26T00:06:13.173Z,19.67
2018-07-26T00:06:17.382Z,19.67
2018-07-26T00:06:21.691Z,19.67
2018-07-26T00:06:25.892Z,19.67
2018-07-26T00:06:30.091Z,19.66
2018-07-26T00:06:34.190Z,19.66
2018-07-26T00:06:38.501Z,19.67
2018-07-26T00:06:42.815Z,19.66
2018-07-26T00:06:47.016Z,19.65
2018-07-26T00:06:51.215Z,19.65
2018-07-26T00:06:55.518Z,19.65
2018-07-26T00:06:59.722Z,19.64
2018-07-26T00:07:03.726Z,19.65
2018-07-26T00:07:07.825Z,19.64
2018-07-26T00:07:12.136Z,19.64
2018-07-26T00:07:16.228Z,19.64
2018-07-26T00:07:20.436Z,19.63
2018-07-26T00:07:24.429Z,19.63
2018-07-26T00:07:28.414Z,19.63
2018-07-26T00:07:32.507Z,19.63
2018-07-26T00:07:36.827Z,19.62
2018-07-26T00:07:41.133Z,19.62
2018-07-26T00:07:45.228Z,19.62
2018-07-26T00:07:49.544Z,19.62
2018-07-26T00:07:53.743Z,19.62
2018-07-26T00:07:58.080Z,19.61
2018-07-26T00:08:02.184Z,19.61
2018-07-26T00:08:06.279Z,19.61
2018-07-26T00:08:10.483Z,19.6
2018-07-26T00:08:14.693Z,19.6
2018-07-26T00:08:19.008Z,19.61
2018-07-26T00:08:23.208Z,19.6
2018-07-26T00:08:27.415Z,19.6
2018-07-26T00:08:31.194Z,19.6
2018-07-26T00:08:35.301Z,19.6
2018-07-26T00:08:39.504Z,19.61
2018-07-26T00:08:43.819Z,19.59
2018-07-26T00:08:48.016Z,19.6
2018-07-26T00:08:52.327Z,19.59
2018-07-26T00:08:56.639Z,19.59
2018-07-26T00:09:00.837Z,19.59
2018-07-26T00:09:04.947Z,19.59
2018-07-26T00:09:09.041Z,19.59
2018-07-26T00:09:13.239Z,19.59
2018-07-26T00:09:17.546Z,19.59
2018-07-26T00:09:21.858Z,19.59
2018-07-26T00:09:26.058Z,19.58
2018-07-26T00:09:30.048Z,19.59
2018-07-26T00:09:34.254Z,19.58
2018-07-26T00:09:38.450Z,19.58
2018-07-26T00:09:42.543Z,19.58
2018-07-26T00:09:46.850Z,19.58
2018-07-26T00:09:51.049Z,19.58
2018-07-26T00:09:55.300Z,19.58
2018-07-26T00:09:59.609Z,19.57
2018-07-26T00:10:03.599Z,19.57
2018-07-26T00:10:07.589Z,19.57
2018-07-26T00:10:11.687Z,19.57
2018-07-26T00:10:16.001Z,19.57
2018-07-26T00:10:20.200Z,19.57
2018-07-26T00:10:24.510Z,19.56
2018-07-26T00:10:28.500Z,19.56
2018-07-26T00:10:32.855Z,19.56
2018-07-26T00:10:37.163Z,19.56
2018-07-26T00:10:41.467Z,19.56
2018-07-26T00:10:45.720Z,19.56
2018-07-26T00:10:50.037Z,19.56
2018-07-26T00:10:54.240Z,19.56
2018-07-26T00:10:58.440Z,19.56
2018-07-26T00:11:02.690Z,19.56
2018-07-26T00:11:06.792Z,19.56
2018-07-26T00:11:11.097Z,19.55
2018-07-26T00:11:15.081Z,19.57
2018-07-26T00:11:19.292Z,19.57
2018-07-26T00:11:23.403Z,19.56
2018-07-26T00:11:27.502Z,19.56
2018-07-26T00:11:31.715Z,19.56
2018-07-26T00:11:35.917Z,19.56
2018-07-26T00:11:40.010Z,19.56
2018-07-26T00:11:44.105Z,19.56
2018-07-26T00:11:48.410Z,19.56
2018-07-26T00:11:52.513Z,19.56
2018-07-26T00:11:56.722Z,19.56
2018-07-26T00:12:01.039Z,19.56
2018-07-26T00:12:05.247Z,19.56
2018-07-26T00:12:09.445Z,19.56
2018-07-26T00:12:13.547Z,19.55
2018-07-26T00:12:17.761Z,19.55
2018-07-26T00:12:22.071Z,19.55
2018-07-26T00:12:26.268Z,19.55
2018-07-26T00:12:30.471Z,19.56
2018-07-26T00:12:34.784Z,19.55
2018-07-26T00:12:38.991Z,19.55
2018-07-26T00:12:43.192Z,19.56
2018-07-26T00:12:47.288Z,19.56
2018-07-26T00:12:51.490Z,19.55
2018-07-26T00:12:55.691Z,19.54
2018-07-26T00:12:59.897Z,19.55
2018-07-26T00:13:03.998Z,19.55
2018-07-26T00:13:08.862Z,19.55
2018-07-26T00:13:13.172Z,19.54
2018-07-26T00:13:17.423Z,19.55
2018-07-26T00:13:21.734Z,19.55
2018-07-26T00:13:25.830Z,19.54
2018-07-26T00:13:29.928Z,19.55
2018-07-26T00:13:34.236Z,19.54
2018-07-26T00:13:38.341Z,19.54
2018-07-26T00:13:42.441Z,19.53
2018-07-26T00:13:46.544Z,19.54
2018-07-26T00:13:50.861Z,19.54
2018-07-26T00:13:55.191Z,19.53
2018-07-26T00:13:59.498Z,19.53
2018-07-26T00:14:03.599Z,19.54
2018-07-26T00:14:07.697Z,19.53
2018-07-26T00:14:11.905Z,19.53
2018-07-26T00:14:16.214Z,19.53
2018-07-26T00:14:20.201Z,19.53
2018-07-26T00:14:24.293Z,19.51
2018-07-26T00:14:28.403Z,19.53
2018-07-26T00:14:32.604Z,19.52
2018-07-26T00:14:36.803Z,19.52
2018-07-26T00:14:41.004Z,19.51
2018-07-26T00:14:45.216Z,19.52
2018-07-26T00:14:49.519Z,19.51
2018-07-26T00:14:53.715Z,19.51
2018-07-26T00:14:58.020Z,19.52
2018-07-26T00:15:02.381Z,19.51
2018-07-26T00:15:06.379Z,19.51
2018-07-26T00:15:10.690Z,19.5
2018-07-26T00:15:15.001Z,19.5
2018-07-26T00:15:19.096Z,19.5
2018-07-26T00:15:23.192Z,19.5
2018-07-26T00:15:27.503Z,19.49
2018-07-26T00:15:31.718Z,19.48
2018-07-26T00:15:35.937Z,19.48
2018-07-26T00:15:40.035Z,19.49
2018-07-26T00:15:44.237Z,19.48
2018-07-26T00:15:48.230Z,19.48
2018-07-26T00:15:52.330Z,19.48
2018-07-26T00:15:56.540Z,19.48
2018-07-26T00:16:00.846Z,19.47
2018-07-26T00:16:05.048Z,19.47
2018-07-26T00:16:09.364Z,19.47
2018-07-26T00:16:13.566Z,19.46
2018-07-26T00:16:17.873Z,19.46
2018-07-26T00:16:21.970Z,19.46
2018-07-26T00:16:26.334Z,19.45
2018-07-26T00:16:30.432Z,19.45
2018-07-26T00:16:34.630Z,19.45
2018-07-26T00:16:38.936Z,19.44
2018-07-26T00:16:43.140Z,19.45
2018-07-26T00:16:47.337Z,19.44
2018-07-26T00:16:51.536Z,19.44
2018-07-26T00:16:55.738Z,19.43
2018-07-26T00:16:59.836Z,19.43
2018-07-26T00:17:03.825Z,19.43
2018-07-26T00:17:07.930Z,19.41
2018-07-26T00:17:12.238Z,19.42
2018-07-26T00:17:16.442Z,19.41
2018-07-26T00:17:20.649Z,19.41
2018-07-26T00:17:24.851Z,19.4
2018-07-26T00:17:28.841Z,19.39
2018-07-26T00:17:33.146Z,19.4
2018-07-26T00:17:37.359Z,19.39
2018-07-26T00:17:41.456Z,19.38
2018-07-26T00:17:45.762Z,19.39
2018-07-26T00:17:49.964Z,19.38
2018-07-26T00:17:54.277Z,19.37
2018-07-26T00:17:58.603Z,19.36
2018-07-26T00:18:02.698Z,19.36
2018-07-26T00:18:06.913Z,19.36
2018-07-26T00:18:10.916Z,19.36
2018-07-26T00:18:15.123Z,19.35
2018-07-26T00:18:19.335Z,19.36
2018-07-26T00:18:23.426Z,19.35
2018-07-26T00:18:27.625Z,19.34
2018-07-26T00:18:31.834Z,19.35
2018-07-26T00:18:36.036Z,19.33
2018-07-26T00:18:40.242Z,19.33
2018-07-26T00:18:44.338Z,19.32
2018-07-26T00:18:48.655Z,19.32
2018-07-26T00:18:52.858Z,19.31
2018-07-26T00:18:57.166Z,19.31
2018-07-26T00:19:01.371Z,19.31
2018-07-26T00:19:05.575Z,19.3
2018-07-26T00:19:09.787Z,19.3
2018-07-26T00:19:13.919Z,19.3
2018-07-26T00:19:18.234Z,19.3
2018-07-26T00:19:22.336Z,19.29
2018-07-26T00:19:26.331Z,19.29
2018-07-26T00:19:30.433Z,19.28
2018-07-26T00:19:34.540Z,19.28
2018-07-26T00:19:38.742Z,19.27
2018-07-26T00:19:43.051Z,19.28
2018-07-26T00:19:47.042Z,19.27
2018-07-26T00:19:51.241Z,19.27
2018-07-26T00:19:55.440Z,19.27
2018-07-26T00:19:59.752Z,19.27
2018-07-26T00:20:04.065Z,19.26
2018-07-26T00:20:08.381Z,19.26
2018-07-26T00:20:12.588Z,19.26
2018-07-26T00:20:16.685Z,19.26
2018-07-26T00:20:20.895Z,19.26
2018-07-26T00:20:25.198Z,19.25
2018-07-26T00:20:29.401Z,19.26
2018-07-26T00:20:33.707Z,19.26
2018-07-26T00:20:37.806Z,19.24
2018-07-26T00:20:42.114Z,19.25
2018-07-26T00:20:46.419Z,19.25
2018-07-26T00:20:50.624Z,19.25
2018-07-26T00:20:54.831Z,19.25
2018-07-26T00:20:58.931Z,19.25
2018-07-26T00:21:03.031Z,19.25
2018-07-26T00:21:07.123Z,19.24
2018-07-26T00:21:11.323Z,19.24
2018-07-26T00:21:15.419Z,19.24
2018-07-26T00:21:19.514Z,19.24
2018-07-26T00:21:23.861Z,19.24
2018-07-26T00:21:28.142Z,19.24
2018-07-26T00:21:32.596Z,19.24
2018-07-26T00:21:37.370Z,19.24
2018-07-26T00:21:42.193Z,19.24
2018-07-26T00:21:46.990Z,19.24
2018-07-26T00:21:51.099Z,19.23
2018-07-26T00:21:55.207Z,19.23
2018-07-26T00:21:59.413Z,19.23
2018-07-26T00:22:03.516Z,19.22
2018-07-26T00:22:07.619Z,19.23
2018-07-26T00:22:11.832Z,19.23
2018-07-26T00:22:16.141Z,19.24
2018-07-26T00:22:20.355Z,19.23
2018-07-26T00:22:24.451Z,19.23
2018-07-26T00:22:28.562Z,19.23
2018-07-26T00:22:32.772Z,19.23
2018-07-26T00:22:36.980Z,19.23
2018-07-26T00:22:41.304Z,19.23
2018-07-26T00:22:45.617Z,19.23
2018-07-26T00:22:49.832Z,19.24
2018-07-26T00:22:54.138Z,19.23
2018-07-26T00:22:58.340Z,19.23
2018-07-26T00:23:02.437Z,19.24
2018-07-26T00:23:06.534Z,19.24
2018-07-26T00:23:10.740Z,19.24
2018-07-26T00:23:14.944Z,19.24
2018-07-26T00:23:19.145Z,19.24
2018-07-26T00:23:23.455Z,19.24
2018-07-26T00:23:27.665Z,19.23
2018-07-26T00:23:31.971Z,19.24
2018-07-26T00:23:36.180Z,19.24
2018-07-26T00:23:40.386Z,19.24
2018-07-26T00:23:44.597Z,19.23
2018-07-26T00:23:48.800Z,19.24
2018-07-26T00:23:53.012Z,19.24
2018-07-26T00:23:57.009Z,19.24
2018-07-26T00:24:01.000Z,19.23
2018-07-26T00:24:05.118Z,19.24
2018-07-26T00:24:09.218Z,19.24
2018-07-26T00:24:13.524Z,19.24
2018-07-26T00:24:17.722Z,19.25
2018-07-26T00:24:21.821Z,19.25
2018-07-26T00:24:26.030Z,19.25
2018-07-26T00:24:30.126Z,19.25
2018-07-26T00:24:34.238Z,19.25
2018-07-26T00:24:38.332Z,19.25
2018-07-26T00:24:42.437Z,19.25
2018-07-26T00:24:46.649Z,19.25
2018-07-26T00:24:50.741Z,19.26
2018-07-26T00:24:54.941Z,19.26
2018-07-26T00:24:59.254Z,19.25
2018-07-26T00:25:03.625Z,19.25
2018-07-26T00:25:07.722Z,19.26
2018-07-26T00:25:11.822Z,19.26
2018-07-26T00:25:15.813Z,19.25
2018-07-26T00:25:19.929Z,19.26
2018-07-26T00:25:24.023Z,19.26
2018-07-26T00:25:28.114Z,19.26
2018-07-26T00:25:32.214Z,19.25
2018-07-26T00:25:36.521Z,19.26
2018-07-26T00:25:40.728Z,19.26
2018-07-26T00:25:45.045Z,19.26
2018-07-26T00:25:49.362Z,19.26
2018-07-26T00:25:53.366Z,19.26
2018-07-26T00:25:57.459Z,19.26
2018-07-26T00:26:01.608Z,19.26
2018-07-26T00:26:05.711Z,19.26
2018-07-26T00:26:09.913Z,19.27
2018-07-26T00:26:14.064Z,19.26
2018-07-26T00:26:18.371Z,19.26
2018-07-26T00:26:22.580Z,19.27
2018-07-26T00:26:26.780Z,19.27
2018-07-26T00:26:30.871Z,19.26
2018-07-26T00:26:34.860Z,19.27
2018-07-26T00:26:39.066Z,19.26
2018-07-26T00:26:43.054Z,19.27
2018-07-26T00:26:47.360Z,19.27
2018-07-26T00:26:51.570Z,19.27
2018-07-26T00:26:55.674Z,19.27
2018-07-26T00:26:59.775Z,19.27
2018-07-26T00:27:04.100Z,19.27
2018-07-26T00:27:08.089Z,19.27
2018-07-26T00:27:12.293Z,19.27
2018-07-26T00:27:16.509Z,19.27
2018-07-26T00:27:20.711Z,19.28
2018-07-26T00:27:24.914Z,19.27
2018-07-26T00:27:29.339Z,19.27
2018-07-26T00:27:33.671Z,19.29
2018-07-26T00:27:38.306Z,19.29
2018-07-26T00:27:42.854Z,19.29
2018-07-26T00:27:47.380Z,19.29
2018-07-26T00:27:51.589Z,19.29
2018-07-26T00:27:55.685Z,19.29
2018-07-26T00:27:59.930Z,19.3
2018-07-26T00:28:04.034Z,19.3
2018-07-26T00:28:08.033Z,19.3
2018-07-26T00:28:12.241Z,19.3
2018-07-26T00:28:16.341Z,19.3
2018-07-26T00:28:20.563Z,19.31
2018-07-26T00:28:24.662Z,19.3
2018-07-26T00:28:28.870Z,19.3
2018-07-26T00:28:33.074Z,19.3
2018-07-26T00:28:37.172Z,19.31
2018-07-26T00:28:41.267Z,19.3
2018-07-26T00:28:45.470Z,19.3
2018-07-26T00:28:49.682Z,19.3
2018-07-26T00:28:53.999Z,19.31
2018-07-26T00:28:58.207Z,19.31
2018-07-26T00:29:02.313Z,19.31
2018-07-26T00:29:06.304Z,19.31
2018-07-26T00:29:10.615Z,19.32
2018-07-26T00:29:14.711Z,19.32
2018-07-26T00:29:18.920Z,19.31
2018-07-26T00:29:23.126Z,19.31
2018-07-26T00:29:27.121Z,19.31
2018-07-26T00:29:31.223Z,19.32
2018-07-26T00:29:35.316Z,19.32
2018-07-26T00:29:39.676Z,19.31
2018-07-26T00:29:43.880Z,19.31
2018-07-26T00:29:48.194Z,19.31
2018-07-26T00:29:52.518Z,19.32
2018-07-26T00:29:56.719Z,19.32
2018-07-26T00:30:00.921Z,19.31
2018-07-26T00:30:05.165Z,19.32
2018-07-26T00:30:09.371Z,19.33
2018-07-26T00:30:13.464Z,19.32
2018-07-26T00:30:17.672Z,19.33
2018-07-26T00:30:21.983Z,19.32
2018-07-26T00:30:26.188Z,19.33
2018-07-26T00:30:30.289Z,19.33
2018-07-26T00:30:34.387Z,19.33
2018-07-26T00:30:38.690Z,19.34
2018-07-26T00:30:42.899Z,19.33
2018-07-26T00:30:47.208Z,19.33
2018-07-26T00:30:51.407Z,19.33
2018-07-26T00:30:55.721Z,19.33
2018-07-26T00:30:59.933Z,19.34
2018-07-26T00:31:04.033Z,19.33
2018-07-26T00:31:08.242Z,19.33
2018-07-26T00:31:12.448Z,19.33
2018-07-26T00:31:16.759Z,19.33
2018-07-26T00:31:21.073Z,19.34
2018-07-26T00:31:25.388Z,19.33
2018-07-26T00:31:29.719Z,19.33
2018-07-26T00:31:33.819Z,19.33
2018-07-26T00:31:38.020Z,19.33
2018-07-26T00:31:42.121Z,19.33
2018-07-26T00:31:46.324Z,19.33
2018-07-26T00:31:50.635Z,19.33
2018-07-26T00:31:54.625Z,19.33
2018-07-26T00:31:58.843Z,19.33
2018-07-26T00:32:02.949Z,19.33
2018-07-26T00:32:07.152Z,19.33
2018-07-26T00:32:11.349Z,19.34
2018-07-26T00:32:15.558Z,19.33
2018-07-26T00:32:19.770Z,19.33
2018-07-26T00:32:23.759Z,19.33
2018-07-26T00:32:27.748Z,19.33
2018-07-26T00:32:31.953Z,19.34
2018-07-26T00:32:36.159Z,19.33
2018-07-26T00:32:40.043Z,19.33
2018-07-26T00:32:44.244Z,19.33
2018-07-26T00:32:48.341Z,19.33
2018-07-26T00:32:52.540Z,19.33
2018-07-26T00:32:56.635Z,19.33
2018-07-26T00:33:00.847Z,19.33
2018-07-26T00:33:04.843Z,19.33
2018-07-26T00:33:09.057Z,19.33
2018-07-26T00:33:13.364Z,19.33
2018-07-26T00:33:17.678Z,19.34
2018-07-26T00:33:21.885Z,19.33
2018-07-26T00:33:26.085Z,19.33
2018-07-26T00:33:30.396Z,19.33
2018-07-26T00:33:34.398Z,19.33
2018-07-26T00:33:38.707Z,19.33
2018-07-26T00:33:42.807Z,19.34
2018-07-26T00:33:47.008Z,19.34
2018-07-26T00:33:51.214Z,19.34
2018-07-26T00:33:55.523Z,19.34
2018-07-26T00:33:59.825Z,19.34
2018-07-26T00:34:04.023Z,19.34
2018-07-26T00:34:08.058Z,19.33
2018-07-26T00:34:12.373Z,19.34
2018-07-26T00:34:16.568Z,19.34
2018-07-26T00:34:20.666Z,19.34
2018-07-26T00:34:24.871Z,19.35
2018-07-26T00:34:28.753Z,19.34
2018-07-26T00:34:32.964Z,19.34
2018-07-26T00:34:37.170Z,19.35
2018-07-26T00:34:41.277Z,19.34
2018-07-26T00:34:45.274Z,19.34
2018-07-26T00:34:49.584Z,19.35
2018-07-26T00:34:53.577Z,19.34
2018-07-26T00:34:57.776Z,19.34
2018-07-26T00:35:01.761Z,19.34
2018-07-26T00:35:05.640Z,19.35
2018-07-26T00:35:09.735Z,19.34
2018-07-26T00:35:14.099Z,19.35
2018-07-26T00:35:18.408Z,19.35
2018-07-26T00:35:22.504Z,19.35
2018-07-26T00:35:26.700Z,19.35
2018-07-26T00:35:30.896Z,19.35
2018-07-26T00:35:34.992Z,19.36
2018-07-26T00:35:39.302Z,19.35
2018-07-26T00:35:43.500Z,19.35
2018-07-26T00:35:47.810Z,19.35
2018-07-26T00:35:52.115Z,19.35
2018-07-26T00:35:56.326Z,19.35
2018-07-26T00:36:00.666Z,19.34
2018-07-26T00:36:04.657Z,19.35
2018-07-26T00:36:08.975Z,19.35
2018-07-26T00:36:13.174Z,19.35
2018-07-26T00:36:17.383Z,19.34
2018-07-26T00:36:21.688Z,19.34
2018-07-26T00:36:25.780Z,19.34
2018-07-26T00:36:30.023Z,19.34
2018-07-26T00:36:34.231Z,19.34
2018-07-26T00:36:38.547Z,19.34
2018-07-26T00:36:42.747Z,19.34
2018-07-26T00:36:46.956Z,19.34
2018-07-26T00:36:51.160Z,19.33
2018-07-26T00:36:55.145Z,19.34
2018-07-26T00:36:59.354Z,19.34
2018-07-26T00:37:03.557Z,19.33
2018-07-26T00:37:07.657Z,19.33
2018-07-26T00:37:11.972Z,19.33
2018-07-26T00:37:16.285Z,19.33
2018-07-26T00:37:20.414Z,19.33
2018-07-26T00:37:24.620Z,19.34
2018-07-26T00:37:28.855Z,19.34
2018-07-26T00:37:33.158Z,19.33
2018-07-26T00:37:37.249Z,19.33
2018-07-26T00:37:41.449Z,19.33
2018-07-26T00:37:45.648Z,19.33
2018-07-26T00:37:49.845Z,19.33
2018-07-26T00:37:54.157Z,19.32
2018-07-26T00:37:58.253Z,19.33
2018-07-26T00:38:02.345Z,19.32
2018-07-26T00:38:06.555Z,19.32
2018-07-26T00:38:10.761Z,19.32
2018-07-26T00:38:14.964Z,19.32
2018-07-26T00:38:19.056Z,19.32
2018-07-26T00:38:23.153Z,19.32
2018-07-26T00:38:27.357Z,19.32
2018-07-26T00:38:31.456Z,19.32
2018-07-26T00:38:35.762Z,19.32
2018-07-26T00:38:39.777Z,19.32
2018-07-26T00:38:43.875Z,19.32
2018-07-26T00:38:48.188Z,19.32
2018-07-26T00:38:52.400Z,19.31
2018-07-26T00:38:56.726Z,19.32
2018-07-26T00:39:00.923Z,19.31
2018-07-26T00:39:05.130Z,19.31
2018-07-26T00:39:09.330Z,19.31
2018-07-26T00:39:13.431Z,19.31
2018-07-26T00:39:17.632Z,19.31
2018-07-26T00:39:21.944Z,19.3
2018-07-26T00:39:26.143Z,19.3
2018-07-26T00:39:30.353Z,19.29
2018-07-26T00:39:34.449Z,19.29
2018-07-26T00:39:38.442Z,19.29
2018-07-26T00:39:42.427Z,19.29
2018-07-26T00:39:46.623Z,19.29
2018-07-26T00:39:50.938Z,19.28
2018-07-26T00:39:55.138Z,19.29
2018-07-26T00:39:59.447Z,19.28
2018-07-26T00:40:03.555Z,19.28
2018-07-26T00:40:07.873Z,19.27
2018-07-26T00:40:12.177Z,19.28
2018-07-26T00:40:16.500Z,19.28
2018-07-26T00:40:20.596Z,19.27
2018-07-26T00:40:24.792Z,19.27
2018-07-26T00:40:29.000Z,19.27
2018-07-26T00:40:33.316Z,19.27
2018-07-26T00:40:37.621Z,19.27
2018-07-26T00:40:41.835Z,19.26
2018-07-26T00:40:46.039Z,19.26
2018-07-26T00:40:50.350Z,19.25
2018-07-26T00:40:54.664Z,19.26
2018-07-26T00:40:58.761Z,19.25
2018-07-26T00:41:02.969Z,19.25
2018-07-26T00:41:07.171Z,19.25
2018-07-26T00:41:11.376Z,19.24
2018-07-26T00:41:15.956Z,19.25
2018-07-26T00:41:20.425Z,19.25
2018-07-26T00:41:25.215Z,19.25
2018-07-26T00:41:29.870Z,19.24
2018-07-26T00:41:33.970Z,19.23
2018-07-26T00:41:38.282Z,19.24
2018-07-26T00:41:42.537Z,19.24
2018-07-26T00:41:46.742Z,19.23
2018-07-26T00:41:50.942Z,19.23
2018-07-26T00:41:55.249Z,19.23
2018-07-26T00:41:59.464Z,19.23
2018-07-26T00:42:03.571Z,19.23
2018-07-26T00:42:07.667Z,19.23
2018-07-26T00:42:11.759Z,19.22
2018-07-26T00:42:16.076Z,19.22
2018-07-26T00:42:20.173Z,19.23
2018-07-26T00:42:24.376Z,19.22
2018-07-26T00:42:28.684Z,19.22
2018-07-26T00:42:32.999Z,19.22
2018-07-26T00:42:37.200Z,19.22
2018-07-26T00:42:41.404Z,19.22
2018-07-26T00:42:45.290Z,19.22
2018-07-26T00:42:49.494Z,19.22
2018-07-26T00:42:53.594Z,19.21
2018-07-26T00:42:57.797Z,19.22
2018-07-26T00:43:02.108Z,19.21
2018-07-26T00:43:06.209Z,19.21
2018-07-26T00:43:10.410Z,19.21
2018-07-26T00:43:14.612Z,19.2
2018-07-26T00:43:18.923Z,19.2
2018-07-26T00:43:23.121Z,19.21
2018-07-26T00:43:27.220Z,19.2
2018-07-26T00:43:31.221Z,19.21
2018-07-26T00:43:35.430Z,19.2
2018-07-26T00:43:39.422Z,19.2
2018-07-26T00:43:43.742Z,19.2
2018-07-26T00:43:48.057Z,19.2
2018-07-26T00:43:52.260Z,19.2
2018-07-26T00:43:56.458Z,19.2
2018-07-26T00:44:00.552Z,19.2
2018-07-26T00:44:04.545Z,19.2
2018-07-26T00:44:08.540Z,19.19
2018-07-26T00:44:12.641Z,19.19
2018-07-26T00:44:16.996Z,19.19
2018-07-26T00:44:21.088Z,19.2
2018-07-26T00:44:25.291Z,19.19
2018-07-26T00:44:29.390Z,19.19
2018-07-26T00:44:33.603Z,19.19
2018-07-26T00:44:37.916Z,19.18
2018-07-26T00:44:41.903Z,19.18
2018-07-26T00:44:46.100Z,19.19
2018-07-26T00:44:50.202Z,19.18
2018-07-26T00:44:54.403Z,19.18
2018-07-26T00:44:58.500Z,19.18
2018-07-26T00:45:02.599Z,19.18
2018-07-26T00:45:06.487Z,19.18
2018-07-26T00:45:10.807Z,19.17
2018-07-26T00:45:14.798Z,19.17
2018-07-26T00:45:19.102Z,19.18
2018-07-26T00:45:23.193Z,19.17
2018-07-26T00:45:27.394Z,19.17
2018-07-26T00:45:31.597Z,19.17
2018-07-26T00:45:35.578Z,19.17
2018-07-26T00:45:39.795Z,19.16
2018-07-26T00:45:44.102Z,19.16
2018-07-26T00:45:48.307Z,19.17
2018-07-26T00:45:52.504Z,19.16
2018-07-26T00:45:56.599Z,19.17
2018-07-26T00:46:00.804Z,19.16
2018-07-26T00:46:05.011Z,19.16
2018-07-26T00:46:09.214Z,19.16
2018-07-26T00:46:13.314Z,19.15
2018-07-26T00:46:17.510Z,19.15
2018-07-26T00:46:21.809Z,19.15
2018-07-26T00:46:26.009Z,19.15
2018-07-26T00:46:30.106Z,19.14
2018-07-26T00:46:34.199Z,19.14
2018-07-26T00:46:38.397Z,19.15
2018-07-26T00:46:42.595Z,19.14
2018-07-26T00:46:46.685Z,19.14
2018-07-26T00:46:50.895Z,19.14
2018-07-26T00:46:55.091Z,19.14
2018-07-26T00:46:59.293Z,19.14
2018-07-26T00:47:03.497Z,19.14
2018-07-26T00:47:07.827Z,19.14
2018-07-26T00:47:11.816Z,19.13
2018-07-26T00:47:16.023Z,19.13
2018-07-26T00:47:20.224Z,19.13
2018-07-26T00:47:24.423Z,19.12
2018-07-26T00:47:28.634Z,19.13
2018-07-26T00:47:32.944Z,19.12
2018-07-26T00:47:37.148Z,19.12
2018-07-26T00:47:41.350Z,19.12
2018-07-26T00:47:45.441Z,19.12
2018-07-26T00:47:49.750Z,19.12
2018-07-26T00:47:53.962Z,19.11
2018-07-26T00:47:58.264Z,19.11
2018-07-26T00:48:02.296Z,19.1
2018-07-26T00:48:06.500Z,19.1
2018-07-26T00:48:10.601Z,19.11
2018-07-26T00:48:14.813Z,19.1
2018-07-26T00:48:18.906Z,19.1
2018-07-26T00:48:23.101Z,19.1
2018-07-26T00:48:27.189Z,19.1
2018-07-26T00:48:31.284Z,19.1
2018-07-26T00:48:35.610Z,19.1
2018-07-26T00:48:39.832Z,19.1
2018-07-26T00:48:44.411Z,19.09
2018-07-26T00:48:48.951Z,19.08
2018-07-26T00:48:53.537Z,19.1
2018-07-26T00:48:57.918Z,19.09
2018-07-26T00:49:02.328Z,19.09
2018-07-26T00:49:06.324Z,19.09
2018-07-26T00:49:10.535Z,19.09
2018-07-26T00:49:14.857Z,19.09
2018-07-26T00:49:19.160Z,19.08
2018-07-26T00:49:23.040Z,19.08
2018-07-26T00:49:27.245Z,19.08
2018-07-26T00:49:31.462Z,19.09
2018-07-26T00:49:35.452Z,19.09
2018-07-26T00:49:39.761Z,19.07
2018-07-26T00:49:43.856Z,19.08
2018-07-26T00:49:48.082Z,19.07
2018-07-26T00:49:52.173Z,19.07
2018-07-26T00:49:56.385Z,19.08
2018-07-26T00:50:00.587Z,19.07
2018-07-26T00:50:04.856Z,19.06
2018-07-26T00:50:09.064Z,19.06
2018-07-26T00:50:13.165Z,19.06
2018-07-26T00:50:17.481Z,19.06
2018-07-26T00:50:21.796Z,19.07
2018-07-26T00:50:26.004Z,19.06
2018-07-26T00:50:30.213Z,19.06
2018-07-26T00:50:34.418Z,19.06
2018-07-26T00:50:38.740Z,19.06
2018-07-26T00:50:43.053Z,19.05
2018-07-26T00:50:47.253Z,19.05
2018-07-26T00:50:51.345Z,19.05
2018-07-26T00:50:55.548Z,19.06
2018-07-26T00:50:59.859Z,19.05
2018-07-26T00:51:04.077Z,19.05
2018-07-26T00:51:08.291Z,19.05
2018-07-26T00:51:12.493Z,19.05
2018-07-26T00:51:16.594Z,19.05
2018-07-26T00:51:20.793Z,19.05
2018-07-26T00:51:25.147Z,19.05
2018-07-26T00:51:29.255Z,19.05
2018-07-26T00:51:33.462Z,19.04
2018-07-26T00:51:37.679Z,19.04
2018-07-26T00:51:41.990Z,19.05
2018-07-26T00:51:46.190Z,19.04
2018-07-26T00:51:50.522Z,19.04
2018-07-26T00:51:54.721Z,19.04
2018-07-26T00:51:59.026Z,19.04
2018-07-26T00:52:03.336Z,19.04
2018-07-26T00:52:07.644Z,19.04
2018-07-26T00:52:11.738Z,19.04
2018-07-26T00:52:15.939Z,19.03
2018-07-26T00:52:20.143Z,19.03
2018-07-26T00:52:24.341Z,19.03
2018-07-26T00:52:28.334Z,19.03
2018-07-26T00:52:32.670Z,19.03
2018-07-26T00:52:36.877Z,19.02
2018-07-26T00:52:40.756Z,19.02
2018-07-26T00:52:45.067Z,19.02
2018-07-26T00:52:49.273Z,19.01
2018-07-26T00:52:53.628Z,19.01
2018-07-26T00:52:57.833Z,19.01
2018-07-26T00:53:02.037Z,19.01
2018-07-26T00:53:06.287Z,19
2018-07-26T00:53:10.506Z,19.01
2018-07-26T00:53:14.594Z,19
2018-07-26T00:53:18.799Z,19
2018-07-26T00:53:23.109Z,19
2018-07-26T00:53:27.319Z,18.99
2018-07-26T00:53:31.620Z,18.99
2018-07-26T00:53:35.838Z,18.99
2018-07-26T00:53:40.047Z,18.98
2018-07-26T00:53:44.139Z,18.98
2018-07-26T00:53:48.344Z,18.98
2018-07-26T00:53:52.541Z,18.98
2018-07-26T00:53:56.751Z,18.97
2018-07-26T00:54:01.078Z,18.97
2018-07-26T00:54:05.178Z,18.96
2018-07-26T00:54:09.281Z,18.96
2018-07-26T00:54:13.588Z,18.95